sensor_id;sensor_type;location;lat;lon;timestamp;pressure;altitude;pressure_sealevel;temperature;humidity
71248;BME280;73325;51.138;6.950;2024-01-15T11:55:36;99712.00;;;3.59;100.00
71248;BME280;73325;51.138;6.950;2024-01-15T11:59:58;99711.00;;;3.11;100.00
71248;BME280;73325;51.138;6.950;2024-01-15T12:02:28;99712.00;;;2.97;100.00
71248;BME280;73325;51.138;6.950;2024-01-15T12:04:58;99710.00;;;2.87;100.00
71248;BME280;73325;51.138;6.950;2024-01-15T12:07:28;99708.00;;;2.80;100.00
71248;BME280;73325;51.138;6.950;2024-01-15T12:09:58;99707.00;;;2.75;99.90
71248;BME280;73325;51.138;6.950;2024-01-15T12:14:59;99708.00;;;2.70;99.83
71248;BME280;73325;51.138;6.950;2024-01-15T12:17:29;99708.00;;;2.71;99.84
71248;BME280;73325;51.138;6.950;2024-01-15T12:19:58;99707.00;;;2.73;99.80
71248;BME280;73325;51.138;6.950;2024-01-15T12:22:29;99709.00;;;2.74;99.74
71248;BME280;73325;51.138;6.950;2024-01-15T12:24:58;99710.00;;;2.74;99.65
71248;BME280;73325;51.138;6.950;2024-01-15T12:27:29;99711.00;;;2.74;99.52
71248;BME280;73325;51.138;6.950;2024-01-15T12:29:59;99710.00;;;2.73;99.42
71248;BME280;73325;51.138;6.950;2024-01-15T12:32:29;99711.00;;;2.72;99.26
71248;BME280;73325;51.138;6.950;2024-01-15T12:35:00;99712.00;;;2.71;99.11
71248;BME280;73325;51.138;6.950;2024-01-15T12:37:30;99711.00;;;2.70;99.10
71248;BME280;73325;51.138;6.950;2024-01-15T12:40:00;99712.00;;;2.70;99.12
71248;BME280;73325;51.138;6.950;2024-01-15T12:42:30;99713.00;;;2.71;99.17
71248;BME280;73325;51.138;6.950;2024-01-15T12:45:00;99715.00;;;2.72;99.08
71248;BME280;73325;51.138;6.950;2024-01-15T12:47:32;99715.00;;;2.73;99.03
71248;BME280;73325;51.138;6.950;2024-01-15T12:50:01;99717.00;;;2.74;98.91
71248;BME280;73325;51.138;6.950;2024-01-15T12:52:30;99719.00;;;2.74;98.88
71248;BME280;73325;51.138;6.950;2024-01-15T12:55:00;99720.00;;;2.75;98.89
71248;BME280;73325;51.138;6.950;2024-01-15T12:57:33;99722.00;;;2.75;98.92
71248;BME280;73325;51.138;6.950;2024-01-15T13:00:02;99723.00;;;2.76;98.95
71248;BME280;73325;51.138;6.950;2024-01-15T13:02:33;99724.00;;;2.77;98.96
71248;BME280;73325;51.138;6.950;2024-01-15T13:05:06;99726.00;;;2.79;98.79
71248;BME280;73325;51.138;6.950;2024-01-15T13:07:33;99728.00;;;2.80;98.62
71248;BME280;73325;51.138;6.950;2024-01-15T13:10:04;99730.00;;;2.80;98.45
71248;BME280;73325;51.138;6.950;2024-01-15T13:12:35;99731.00;;;2.81;98.45
71248;BME280;73325;51.138;6.950;2024-01-15T13:15:05;99731.00;;;2.81;98.40
71248;BME280;73325;51.138;6.950;2024-01-15T13:17:35;99731.00;;;2.81;98.40
71248;BME280;73325;51.138;6.950;2024-01-15T13:20:06;99729.00;;;2.81;98.41
71248;BME280;73325;51.138;6.950;2024-01-15T13:22:35;99727.00;;;2.81;98.46
71248;BME280;73325;51.138;6.950;2024-01-15T13:25:06;99726.00;;;2.82;98.40
71248;BME280;73325;51.138;6.950;2024-01-15T13:27:36;99727.00;;;2.82;98.52
71248;BME280;73325;51.138;6.950;2024-01-15T13:30:07;99728.00;;;2.82;98.32
71248;BME280;73325;51.138;6.950;2024-01-15T13:32:36;99727.00;;;2.83;98.28
71248;BME280;73325;51.138;6.950;2024-01-15T13:35:07;99728.00;;;2.83;98.35
71248;BME280;73325;51.138;6.950;2024-01-15T13:37:37;99728.00;;;2.82;98.27
71248;BME280;73325;51.138;6.950;2024-01-15T13:40:08;99728.00;;;2.82;98.14
71248;BME280;73325;51.138;6.950;2024-01-15T13:42:37;99729.00;;;2.81;98.15
71248;BME280;73325;51.138;6.950;2024-01-15T13:45:08;99731.00;;;2.80;98.27
71248;BME280;73325;51.138;6.950;2024-01-15T13:47:38;99733.00;;;2.79;98.42
71248;BME280;73325;51.138;6.950;2024-01-15T13:50:09;99736.00;;;2.78;98.54
71248;BME280;73325;51.138;6.950;2024-01-15T13:52:39;99738.00;;;2.77;98.69
71248;BME280;73325;51.138;6.950;2024-01-15T13:55:09;99740.00;;;2.76;98.76
71248;BME280;73325;51.138;6.950;2024-01-15T13:57:39;99742.00;;;2.75;98.75
71248;BME280;73325;51.138;6.950;2024-01-15T14:00:10;99744.00;;;2.74;98.65
71248;BME280;73325;51.138;6.950;2024-01-15T14:02:39;99747.00;;;2.74;98.61
71248;BME280;73325;51.138;6.950;2024-01-15T14:05:09;99751.00;;;2.73;98.57
71248;BME280;73325;51.138;6.950;2024-01-15T14:07:39;99756.00;;;2.71;98.61
71248;BME280;73325;51.138;6.950;2024-01-15T14:10:10;99760.00;;;2.70;98.60
71248;BME280;73325;51.138;6.950;2024-01-15T14:12:43;99763.00;;;2.68;98.61
71248;BME280;73325;51.138;6.950;2024-01-15T14:15:10;99769.00;;;2.67;98.59
71248;BME280;73325;51.138;6.950;2024-01-15T14:17:40;99773.00;;;2.65;98.61
71248;BME280;73325;51.138;6.950;2024-01-15T14:20:10;99777.00;;;2.64;98.67
71248;BME280;73325;51.138;6.950;2024-01-15T14:22:40;99780.00;;;2.63;98.69
71248;BME280;73325;51.138;6.950;2024-01-15T14:25:10;99784.00;;;2.62;98.69
71248;BME280;73325;51.138;6.950;2024-01-15T14:27:40;99784.00;;;2.62;98.72
71248;BME280;73325;51.138;6.950;2024-01-15T14:30:11;99786.00;;;2.62;98.66
71248;BME280;73325;51.138;6.950;2024-01-15T14:32:42;99791.00;;;2.62;98.66
71248;BME280;73325;51.138;6.950;2024-01-15T14:35:12;99793.00;;;2.62;98.63
71248;BME280;73325;51.138;6.950;2024-01-15T14:37:42;99794.00;;;2.63;98.53
71248;BME280;73325;51.138;6.950;2024-01-15T14:40:12;99797.00;;;2.63;98.39
71248;BME280;73325;51.138;6.950;2024-01-15T14:42:42;99800.00;;;2.64;98.19
71248;BME280;73325;51.138;6.950;2024-01-15T14:45:14;99803.00;;;2.65;98.06
71248;BME280;73325;51.138;6.950;2024-01-15T14:47:42;99807.00;;;2.65;98.09
71248;BME280;73325;51.138;6.950;2024-01-15T14:50:12;99811.00;;;2.65;98.22
71248;BME280;73325;51.138;6.950;2024-01-15T14:52:42;99816.00;;;2.66;98.22
71248;BME280;73325;51.138;6.950;2024-01-15T14:55:13;99819.00;;;2.66;98.36
71248;BME280;73325;51.138;6.950;2024-01-15T14:57:43;99823.00;;;2.66;98.35
71248;BME280;73325;51.138;6.950;2024-01-15T15:00:18;99827.00;;;2.66;98.19
71248;BME280;73325;51.138;6.950;2024-01-15T15:02:44;99832.00;;;2.66;98.14
71248;BME280;73325;51.138;6.950;2024-01-15T15:05:14;99838.00;;;2.66;97.88
71248;BME280;73325;51.138;6.950;2024-01-15T15:07:44;99844.00;;;2.66;97.72
71248;BME280;73325;51.138;6.950;2024-01-15T15:10:16;99848.00;;;2.65;97.47
71248;BME280;73325;51.138;6.950;2024-01-15T15:12:45;99850.00;;;2.64;97.31
71248;BME280;73325;51.138;6.950;2024-01-15T15:15:15;99854.00;;;2.63;97.26
71248;BME280;73325;51.138;6.950;2024-01-15T15:20:32;99862.00;;;2.61;96.92
71248;BME280;73325;51.138;6.950;2024-01-15T15:22:46;99867.00;;;2.60;96.90
71248;BME280;73325;51.138;6.950;2024-01-15T15:25:16;99872.00;;;2.59;97.17
71248;BME280;73325;51.138;6.950;2024-01-15T15:27:46;99876.00;;;2.59;97.18
71248;BME280;73325;51.138;6.950;2024-01-15T15:30:16;99881.00;;;2.58;97.26
71248;BME280;73325;51.138;6.950;2024-01-15T15:32:46;99885.00;;;2.58;97.21
71248;BME280;73325;51.138;6.950;2024-01-15T15:35:16;99891.00;;;2.58;97.21
71248;BME280;73325;51.138;6.950;2024-01-15T15:37:46;99895.00;;;2.57;97.19
71248;BME280;73325;51.138;6.950;2024-01-15T15:40:16;99897.00;;;2.56;97.33
71248;BME280;73325;51.138;6.950;2024-01-15T15:42:46;99900.00;;;2.55;97.50
71248;BME280;73325;51.138;6.950;2024-01-15T15:45:16;99902.00;;;2.54;97.56
71248;BME280;73325;51.138;6.950;2024-01-15T15:47:46;99906.00;;;2.52;97.67
71248;BME280;73325;51.138;6.950;2024-01-15T15:50:16;99907.00;;;2.49;97.73
71248;BME280;73325;51.138;6.950;2024-01-15T15:52:46;99911.00;;;2.45;97.68
71248;BME280;73325;51.138;6.950;2024-01-15T15:55:16;99916.00;;;2.41;97.73
71248;BME280;73325;51.138;6.950;2024-01-15T15:57:46;99922.00;;;2.37;97.86
71248;BME280;73325;51.138;6.950;2024-01-15T16:00:16;99927.00;;;2.32;98.00
71248;BME280;73325;51.138;6.950;2024-01-15T16:02:46;99933.00;;;2.28;98.11
71248;BME280;73325;51.138;6.950;2024-01-15T16:05:16;99939.00;;;2.25;98.22
71248;BME280;73325;51.138;6.950;2024-01-15T16:07:46;99946.00;;;2.21;98.39
71248;BME280;73325;51.138;6.950;2024-01-15T16:10:16;99950.00;;;2.18;98.54
71248;BME280;73325;51.138;6.950;2024-01-15T16:12:46;99953.00;;;2.16;98.66
71248;BME280;73325;51.138;6.950;2024-01-15T16:15:19;99956.00;;;2.14;98.75
71248;BME280;73325;51.138;6.950;2024-01-15T16:17:51;99958.00;;;2.11;98.81
71248;BME280;73325;51.138;6.950;2024-01-15T16:20:18;99960.00;;;2.09;98.84
71248;BME280;73325;51.138;6.950;2024-01-15T16:22:48;99962.00;;;2.07;98.86
71248;BME280;73325;51.138;6.950;2024-01-15T16:25:18;99964.00;;;2.05;98.90
71248;BME280;73325;51.138;6.950;2024-01-15T16:27:48;99965.00;;;2.03;98.99
71248;BME280;73325;51.138;6.950;2024-01-15T16:30:18;99965.00;;;2.03;99.06
71248;BME280;73325;51.138;6.950;2024-01-15T16:32:48;99968.00;;;2.02;99.02
71248;BME280;73325;51.138;6.950;2024-01-15T16:35:18;99971.00;;;2.02;98.98
71248;BME280;73325;51.138;6.950;2024-01-15T16:37:48;99974.00;;;2.03;98.89
71248;BME280;73325;51.138;6.950;2024-01-15T16:40:18;99976.00;;;2.03;98.72
71248;BME280;73325;51.138;6.950;2024-01-15T16:42:48;99979.00;;;2.03;98.62
71248;BME280;73325;51.138;6.950;2024-01-15T16:45:18;99981.00;;;2.04;98.56
71248;BME280;73325;51.138;6.950;2024-01-15T16:47:48;99982.00;;;2.04;98.55
71248;BME280;73325;51.138;6.950;2024-01-15T16:50:18;99984.00;;;2.05;98.54
71248;BME280;73325;51.138;6.950;2024-01-15T16:52:48;99986.00;;;2.06;98.52
71248;BME280;73325;51.138;6.950;2024-01-15T16:55:18;99990.00;;;2.06;98.47
71248;BME280;73325;51.138;6.950;2024-01-15T16:57:51;99993.00;;;2.07;98.47
71248;BME280;73325;51.138;6.950;2024-01-15T17:00:18;99995.00;;;2.08;98.46
71248;BME280;73325;51.138;6.950;2024-01-15T17:02:49;99997.00;;;2.08;98.42
71248;BME280;73325;51.138;6.950;2024-01-15T17:05:23;99999.00;;;2.08;98.39
71248;BME280;73325;51.138;6.950;2024-01-15T17:07:50;99999.00;;;2.08;98.42
71248;BME280;73325;51.138;6.950;2024-01-15T17:10:20;100000.00;;;2.07;98.32
71248;BME280;73325;51.138;6.950;2024-01-15T17:12:50;100002.00;;;2.06;98.24
71248;BME280;73325;51.138;6.950;2024-01-15T17:15:19;100003.00;;;2.04;98.21
71248;BME280;73325;51.138;6.950;2024-01-15T17:17:50;100005.00;;;2.01;98.02
71248;BME280;73325;51.138;6.950;2024-01-15T17:20:23;100008.00;;;1.97;98.01
71248;BME280;73325;51.138;6.950;2024-01-15T17:22:51;100013.00;;;1.93;98.01
71248;BME280;73325;51.138;6.950;2024-01-15T17:25:21;100014.00;;;1.88;98.01
71248;BME280;73325;51.138;6.950;2024-01-15T17:27:51;100017.00;;;1.83;98.14
71248;BME280;73325;51.138;6.950;2024-01-15T17:30:21;100020.00;;;1.78;98.27
71248;BME280;73325;51.138;6.950;2024-01-15T17:32:51;100024.00;;;1.74;98.33
71248;BME280;73325;51.138;6.950;2024-01-15T17:35:21;100028.00;;;1.70;98.41
71248;BME280;73325;51.138;6.950;2024-01-15T17:37:52;100032.00;;;1.67;98.54
71248;BME280;73325;51.138;6.950;2024-01-15T17:40:22;100036.00;;;1.65;98.60
71248;BME280;73325;51.138;6.950;2024-01-15T17:42:52;100041.00;;;1.63;98.61
71248;BME280;73325;51.138;6.950;2024-01-15T17:45:22;100046.00;;;1.62;98.59
71248;BME280;73325;51.138;6.950;2024-01-15T17:47:52;100050.00;;;1.61;98.61
71248;BME280;73325;51.138;6.950;2024-01-15T17:50:22;100053.00;;;1.60;98.66
71248;BME280;73325;51.138;6.950;2024-01-15T17:52:52;100056.00;;;1.60;98.69
71248;BME280;73325;51.138;6.950;2024-01-15T17:55:22;100059.00;;;1.60;98.69
71248;BME280;73325;51.138;6.950;2024-01-15T17:57:52;100063.00;;;1.62;98.71
71248;BME280;73325;51.138;6.950;2024-01-15T18:00:22;100065.00;;;1.64;98.71
71248;BME280;73325;51.138;6.950;2024-01-15T18:02:52;100068.00;;;1.67;98.61
71248;BME280;73325;51.138;6.950;2024-01-15T18:05:22;100070.00;;;1.70;98.49
71248;BME280;73325;51.138;6.950;2024-01-15T18:07:52;100073.00;;;1.74;98.21
71248;BME280;73325;51.138;6.950;2024-01-15T18:10:22;100075.00;;;1.77;98.05
71248;BME280;73325;51.138;6.950;2024-01-15T18:12:52;100077.00;;;1.80;97.86
71248;BME280;73325;51.138;6.950;2024-01-15T18:15:22;100079.00;;;1.82;97.82
71248;BME280;73325;51.138;6.950;2024-01-15T18:17:52;100081.00;;;1.85;97.63
71248;BME280;73325;51.138;6.950;2024-01-15T18:20:22;100084.00;;;1.87;97.52
71248;BME280;73325;51.138;6.950;2024-01-15T18:22:52;100087.00;;;1.88;97.42
71248;BME280;73325;51.138;6.950;2024-01-15T18:25:23;100092.00;;;1.90;97.33
71248;BME280;73325;51.138;6.950;2024-01-15T18:27:56;100097.00;;;1.92;97.20
71248;BME280;73325;51.138;6.950;2024-01-15T18:30:23;100101.00;;;1.93;97.16
71248;BME280;73325;51.138;6.950;2024-01-15T18:32:53;100104.00;;;1.95;96.97
71248;BME280;73325;51.138;6.950;2024-01-15T18:35:23;100108.00;;;1.97;96.81
71248;BME280;73325;51.138;6.950;2024-01-15T18:40:29;100119.00;;;2.00;96.68
71248;BME280;73325;51.138;6.950;2024-01-15T18:42:54;100122.00;;;2.02;96.70
71248;BME280;73325;51.138;6.950;2024-01-15T18:45:26;100122.00;;;2.03;96.45
71248;BME280;73325;51.138;6.950;2024-01-15T18:47:54;100123.00;;;2.04;96.36
71248;BME280;73325;51.138;6.950;2024-01-15T18:50:24;100123.00;;;2.05;96.20
71248;BME280;73325;51.138;6.950;2024-01-15T18:52:54;100125.00;;;2.04;96.11
71248;BME280;73325;51.138;6.950;2024-01-15T18:55:24;100125.00;;;2.03;96.18
71248;BME280;73325;51.138;6.950;2024-01-15T18:57:54;100128.00;;;2.01;96.05
71248;BME280;73325;51.138;6.950;2024-01-15T19:00:24;100131.00;;;2.00;96.10
71248;BME280;73325;51.138;6.950;2024-01-15T19:02:54;100133.00;;;1.97;96.11
71248;BME280;73325;51.138;6.950;2024-01-15T19:05:25;100135.00;;;1.95;96.19
71248;BME280;73325;51.138;6.950;2024-01-15T19:07:54;100137.00;;;1.93;96.51
71248;BME280;73325;51.138;6.950;2024-01-15T19:10:25;100140.00;;;1.91;96.62
71248;BME280;73325;51.138;6.950;2024-01-15T19:12:55;100142.00;;;1.91;96.57
71248;BME280;73325;51.138;6.950;2024-01-15T19:15:25;100145.00;;;1.90;96.58
71248;BME280;73325;51.138;6.950;2024-01-15T19:17:55;100148.00;;;1.90;96.64
71248;BME280;73325;51.138;6.950;2024-01-15T19:20:25;100150.00;;;1.90;96.54
71248;BME280;73325;51.138;6.950;2024-01-15T19:22:55;100151.00;;;1.90;96.58
71248;BME280;73325;51.138;6.950;2024-01-15T19:25:25;100153.00;;;1.90;96.62
71248;BME280;73325;51.138;6.950;2024-01-15T19:27:55;100156.00;;;1.90;96.56
71248;BME280;73325;51.138;6.950;2024-01-15T19:30:25;100160.00;;;1.91;96.59
71248;BME280;73325;51.138;6.950;2024-01-15T19:32:55;100162.00;;;1.90;96.56
71248;BME280;73325;51.138;6.950;2024-01-15T19:35:25;100165.00;;;1.90;96.56
71248;BME280;73325;51.138;6.950;2024-01-15T19:37:55;100167.00;;;1.90;96.54
71248;BME280;73325;51.138;6.950;2024-01-15T19:40:25;100170.00;;;1.90;96.56
71248;BME280;73325;51.138;6.950;2024-01-15T19:42:55;100173.00;;;1.90;96.67
71248;BME280;73325;51.138;6.950;2024-01-15T19:45:25;100177.00;;;1.90;96.66
71248;BME280;73325;51.138;6.950;2024-01-15T19:47:55;100179.00;;;1.89;96.78
71248;BME280;73325;51.138;6.950;2024-01-15T19:50:32;100182.00;;;1.89;96.74
71248;BME280;73325;51.138;6.950;2024-01-15T19:52:59;100185.00;;;1.89;96.71
71248;BME280;73325;51.138;6.950;2024-01-15T19:55:27;100188.00;;;1.89;96.56
71248;BME280;73325;51.138;6.950;2024-01-15T19:57:57;100191.00;;;1.89;96.55
71248;BME280;73325;51.138;6.950;2024-01-15T20:00:27;100195.00;;;1.89;96.46
71248;BME280;73325;51.138;6.950;2024-01-15T20:02:57;100198.00;;;1.89;96.49
71248;BME280;73325;51.138;6.950;2024-01-15T20:05:27;100201.00;;;1.90;96.32
71248;BME280;73325;51.138;6.950;2024-01-15T20:07:57;100201.00;;;1.90;96.25
71248;BME280;73325;51.138;6.950;2024-01-15T20:10:27;100201.00;;;1.90;96.31
71248;BME280;73325;51.138;6.950;2024-01-15T20:12:57;100201.00;;;1.90;96.16
71248;BME280;73325;51.138;6.950;2024-01-15T20:15:27;100200.00;;;1.90;96.27
71248;BME280;73325;51.138;6.950;2024-01-15T20:17:57;100201.00;;;1.90;96.35
71248;BME280;73325;51.138;6.950;2024-01-15T20:20:27;100202.00;;;1.90;96.36
71248;BME280;73325;51.138;6.950;2024-01-15T20:22:57;100204.00;;;1.89;96.34
71248;BME280;73325;51.138;6.950;2024-01-15T20:25:27;100208.00;;;1.89;96.36
71248;BME280;73325;51.138;6.950;2024-01-15T20:27:57;100210.00;;;1.89;96.49
71248;BME280;73325;51.138;6.950;2024-01-15T20:30:27;100213.00;;;1.90;96.43
71248;BME280;73325;51.138;6.950;2024-01-15T20:32:57;100215.00;;;1.90;96.43
71248;BME280;73325;51.138;6.950;2024-01-15T20:35:27;100217.00;;;1.91;96.39
71248;BME280;73325;51.138;6.950;2024-01-15T20:37:57;100220.00;;;1.90;96.30
71248;BME280;73325;51.138;6.950;2024-01-15T20:40:27;100223.00;;;1.89;96.29
71248;BME280;73325;51.138;6.950;2024-01-15T20:42:57;100228.00;;;1.88;96.38
71248;BME280;73325;51.138;6.950;2024-01-15T20:45:27;100230.00;;;1.87;96.41
71248;BME280;73325;51.138;6.950;2024-01-15T20:47:57;100232.00;;;1.85;96.40
71248;BME280;73325;51.138;6.950;2024-01-15T20:50:27;100234.00;;;1.84;96.43
71248;BME280;73325;51.138;6.950;2024-01-15T20:52:57;100235.00;;;1.82;96.49
71248;BME280;73325;51.138;6.950;2024-01-15T20:55:27;100237.00;;;1.81;96.63
71248;BME280;73325;51.138;6.950;2024-01-15T20:57:57;100239.00;;;1.80;96.67
71248;BME280;73325;51.138;6.950;2024-01-15T21:00:27;100240.00;;;1.80;96.67
71248;BME280;73325;51.138;6.950;2024-01-15T21:02:57;100244.00;;;1.80;96.49
71248;BME280;73325;51.138;6.950;2024-01-15T21:05:28;100247.00;;;1.80;96.50
71248;BME280;73325;51.138;6.950;2024-01-15T21:07:57;100249.00;;;1.80;96.59
71248;BME280;73325;51.138;6.950;2024-01-15T21:10:28;100251.00;;;1.80;96.51
71248;BME280;73325;51.138;6.950;2024-01-15T21:12:58;100253.00;;;1.81;96.57
71248;BME280;73325;51.138;6.950;2024-01-15T21:15:27;100255.00;;;1.81;96.43
71248;BME280;73325;51.138;6.950;2024-01-15T21:17:58;100256.00;;;1.81;96.20
71248;BME280;73325;51.138;6.950;2024-01-15T21:20:28;100257.00;;;1.80;96.18
71248;BME280;73325;51.138;6.950;2024-01-15T21:22:58;100261.00;;;1.79;96.17
71248;BME280;73325;51.138;6.950;2024-01-15T21:25:28;100265.00;;;1.77;96.34
71248;BME280;73325;51.138;6.950;2024-01-15T21:27:58;100269.00;;;1.75;96.56
71248;BME280;73325;51.138;6.950;2024-01-15T21:30:28;100273.00;;;1.74;96.67
71248;BME280;73325;51.138;6.950;2024-01-15T21:32:58;100276.00;;;1.74;96.71
71248;BME280;73325;51.138;6.950;2024-01-15T21:35:28;100280.00;;;1.74;96.75
71248;BME280;73325;51.138;6.950;2024-01-15T21:37:58;100282.00;;;1.74;96.68
71248;BME280;73325;51.138;6.950;2024-01-15T21:40:28;100284.00;;;1.75;96.68
71248;BME280;73325;51.138;6.950;2024-01-15T21:42:58;100286.00;;;1.76;96.60
71248;BME280;73325;51.138;6.950;2024-01-15T21:45:28;100289.00;;;1.77;96.57
71248;BME280;73325;51.138;6.950;2024-01-15T21:48:01;100290.00;;;1.78;96.58
71248;BME280;73325;51.138;6.950;2024-01-15T21:50:29;100292.00;;;1.79;96.53
71248;BME280;73325;51.138;6.950;2024-01-15T21:52:59;100293.00;;;1.80;96.57
71248;BME280;73325;51.138;6.950;2024-01-15T21:55:29;100293.00;;;1.82;96.61
71248;BME280;73325;51.138;6.950;2024-01-15T21:57:59;100293.00;;;1.83;96.70
71248;BME280;73325;51.138;6.950;2024-01-15T22:00:29;100294.00;;;1.84;96.67
71248;BME280;73325;51.138;6.950;2024-01-15T22:02:59;100295.00;;;1.86;96.71
71248;BME280;73325;51.138;6.950;2024-01-15T22:05:29;100294.00;;;1.87;96.62
71248;BME280;73325;51.138;6.950;2024-01-15T22:07:59;100295.00;;;1.89;96.66
71248;BME280;73325;51.138;6.950;2024-01-15T22:10:29;100295.00;;;1.90;96.60
71248;BME280;73325;51.138;6.950;2024-01-15T22:12:59;100297.00;;;1.92;96.58
71248;BME280;73325;51.138;6.950;2024-01-15T22:15:29;100300.00;;;1.93;96.64
71248;BME280;73325;51.138;6.950;2024-01-15T22:17:59;100303.00;;;1.95;96.61
